Time;durP1;ratioP1;P1;durP2;ratioP2;P2;SDS_P1;SDS_P2;PMS_P1;PMS_P2;Temp;Humidity;BMP_temperature;BMP_pressure;BME280_temperature;BME280_humidity;BME280_pressure;Samples;Min_cycle;Max_cycle;Signal;HPM_P1;HPM_P2
2021/12/28 00:00:19;;;;;;;23.90;9.65;;;;;;;-6.11;68.83;100394.78;4959829;29;20123;-84
2021/12/28 00:02:47;;;;;;;24.00;9.88;;;;;;;-6.06;68.74;100406.22;4958969;29;20054;-86
2021/12/28 00:05:16;;;;;;;19.90;9.45;;;;;;;-6.02;68.89;100413.34;4958347;29;20063;-84
2021/12/28 00:07:43;;;;;;;19.70;9.18;;;;;;;-6.10;69.32;100416.94;4959418;29;20084;-86
2021/12/28 00:10:13;;;;;;;22.88;8.75;;;;;;;-6.08;69.34;100420.47;4926167;29;20538;-86
2021/12/28 00:12:40;;;;;;;22.10;9.30;;;;;;;-6.06;69.05;100421.50;4960205;29;20411;-84
2021/12/28 00:15:33;;;;;;;22.52;9.85;;;;;;;-6.13;68.96;100415.03;4964069;28;20055;-85
2021/12/28 00:18:02;;;;;;;19.83;8.98;;;;;;;-6.20;69.48;100400.94;4956558;29;20062;-85
2021/12/28 00:20:36;;;;;;;21.45;8.82;;;;;;;-6.17;69.16;100407.94;4955908;29;20067;-85
2021/12/28 00:23:08;;;;;;;21.88;8.80;;;;;;;-6.11;69.33;100415.13;4954667;29;20086;-85
2021/12/28 00:25:35;;;;;;;19.52;8.88;;;;;;;-6.07;68.95;100402.78;4937431;29;20059;-85
2021/12/28 00:28:03;;;;;;;18.73;8.70;;;;;;;-6.05;69.00;100413.06;4939702;29;20059;-83
2021/12/28 00:30:31;;;;;;;20.65;8.85;;;;;;;-6.05;69.18;100413.97;4953773;29;20522;-84
2021/12/28 00:32:58;;;;;;;22.15;8.63;;;;;;;-6.03;68.97;100414.09;4954186;29;20093;-86
2021/12/28 00:35:39;;;;;;;24.17;8.98;;;;;;;-6.09;68.59;100404.31;4953131;29;20058;-86
2021/12/28 00:38:09;;;;;;;23.05;9.10;;;;;;;-5.94;69.07;100416.47;4953563;29;20058;-84
2021/12/28 00:40:37;;;;;;;22.13;8.85;;;;;;;-5.89;68.61;100403.31;4937242;29;20146;-86
2021/12/28 00:43:05;;;;;;;18.63;9.00;;;;;;;-5.76;68.61;100405.13;4938906;28;20055;-85
2021/12/28 00:45:33;;;;;;;20.42;8.23;;;;;;;-5.74;68.56;100417.94;4925313;29;20055;-84
2021/12/28 00:48:00;;;;;;;19.35;9.00;;;;;;;-5.81;68.51;100408.97;4969713;28;20127;-86
2021/12/28 00:50:29;;;;;;;21.77;9.90;;;;;;;-5.76;68.52;100416.19;4942869;29;20158;-85
2021/12/28 00:52:56;;;;;;;25.48;9.68;;;;;;;-5.76;68.10;100417.84;4958998;29;20047;-87
2021/12/28 00:55:24;;;;;;;20.80;9.20;;;;;;;-5.80;68.18;100410.75;4965274;28;20058;-85
2021/12/28 00:57:52;;;;;;;19.80;9.20;;;;;;;-5.81;68.28;100411.50;4954570;29;20145;-83
2021/12/28 01:00:23;;;;;;;20.13;8.98;;;;;;;-5.90;68.11;100426.06;4959338;29;20055;-84
2021/12/28 01:02:54;;;;;;;25.15;9.40;;;;;;;-5.99;68.24;100432.25;4960411;29;20511;-84
2021/12/28 01:05:22;;;;;;;22.73;9.82;;;;;;;-6.12;68.23;100421.00;4942287;29;20079;-84
2021/12/28 01:07:49;;;;;;;22.33;9.13;;;;;;;-6.14;68.64;100428.50;4958471;29;20055;-83
2021/12/28 01:10:21;;;;;;;19.60;8.73;;;;;;;-6.30;69.33;100410.25;4960455;29;20153;-82
2021/12/28 01:12:49;;;;;;;19.05;8.63;;;;;;;-6.26;68.86;100425.91;4944799;29;20047;-84
2021/12/28 01:15:17;;;;;;;16.45;6.95;;;;;;;-6.28;68.17;100432.53;4962675;29;20083;-85
2021/12/28 01:17:43;;;;;;;18.15;7.63;;;;;;;-6.41;68.86;100410.31;4963836;29;20051;-84
2021/12/28 01:20:12;;;;;;;20.60;8.13;;;;;;;-6.42;68.72;100418.69;4943641;29;20040;-85
2021/12/28 01:22:40;;;;;;;19.27;7.78;;;;;;;-6.50;69.01;100431.56;4938431;29;20052;-85
2021/12/28 01:25:08;;;;;;;22.75;9.20;;;;;;;-6.63;69.42;100438.19;4938701;29;20135;-86
2021/12/28 01:27:35;;;;;;;24.73;8.95;;;;;;;-6.57;69.28;100442.03;4940658;29;20059;-83
2021/12/28 01:30:05;;;;;;;20.27;9.82;;;;;;;-6.48;69.04;100435.13;4934104;29;20578;-86
2021/12/28 01:32:32;;;;;;;20.58;8.40;;;;;;;-6.39;68.62;100426.59;4974622;28;20086;-89
2021/12/28 01:34:59;;;;;;;17.75;8.43;;;;;;;-6.31;68.44;100434.81;4960229;28;20086;-87
2021/12/28 01:37:29;;;;;;;19.17;8.80;;;;;;;-6.25;67.82;100442.03;4958404;28;20500;-86
2021/12/28 01:39:56;;;;;;;24.95;9.05;;;;;;;-6.31;67.67;100441.56;4959172;28;20493;-86
2021/12/28 01:42:25;;;;;;;19.60;8.95;;;;;;;-6.37;68.24;100444.47;4957282;28;20055;-86
2021/12/28 01:44:52;;;;;;;18.00;8.35;;;;;;;-6.21;68.13;100465.28;4976571;28;20584;-87
2021/12/28 01:47:19;;;;;;;16.08;8.20;;;;;;;-6.11;67.99;100455.84;4975062;28;20055;-85
2021/12/28 01:49:46;;;;;;;22.17;9.30;;;;;;;-6.05;67.40;100458.88;4979642;28;20085;-87
2021/12/28 01:52:13;;;;;;;21.30;9.35;;;;;;;-6.09;68.29;100449.22;4982664;28;20063;-90
2021/12/28 01:54:42;;;;;;;20.90;9.13;;;;;;;-6.06;68.07;100450.34;4965597;28;20487;-89
2021/12/28 01:57:09;;;;;;;18.40;8.65;;;;;;;-5.95;67.68;100448.66;4962115;28;20114;-86
2021/12/28 01:59:36;;;;;;;23.73;10.32;;;;;;;-5.86;68.28;100469.69;4978276;28;20051;-86
2021/12/28 02:02:03;;;;;;;23.77;10.25;;;;;;;-5.81;67.67;100467.50;4961746;28;20508;-86
2021/12/28 02:04:30;;;;;;;21.40;9.07;;;;;;;-5.90;67.62;100461.69;4958427;28;20054;-86
2021/12/28 02:06:58;;;;;;;22.73;10.48;;;;;;;-5.98;68.08;100456.94;4975564;28;20055;-87
2021/12/28 02:09:26;;;;;;;24.52;10.35;;;;;;;-5.94;68.01;100457.16;4957536;28;20055;-86
2021/12/28 02:11:53;;;;;;;22.63;10.00;;;;;;;-6.04;67.88;100465.75;4943400;28;20415;-86
2021/12/28 02:14:21;;;;;;;22.17;10.20;;;;;;;-6.14;68.17;100474.28;4953994;28;20067;-86
2021/12/28 02:16:49;;;;;;;25.85;11.45;;;;;;;-6.14;68.63;100465.78;4987805;28;20518;-84
2021/12/28 02:19:18;;;;;;;22.25;10.82;;;;;;;-6.13;69.07;100450.66;4981412;28;20503;-84
2021/12/28 02:21:46;;;;;;;24.92;11.07;;;;;;;-5.90;68.09;100471.88;4976086;28;20145;-84
2021/12/28 02:24:13;;;;;;;24.27;11.50;;;;;;;-5.93;67.80;100494.53;4975989;28;20058;-84
2021/12/28 02:26:40;;;;;;;24.80;10.77;;;;;;;-5.98;68.05;100484.94;4958757;28;20082;-86
2021/12/28 02:29:07;;;;;;;20.40;9.50;;;;;;;-6.20;68.40;100458.53;4976342;28;20507;-83
2021/12/28 02:31:34;;;;;;;24.75;10.38;;;;;;;-6.21;68.38;100461.88;4974895;28;20407;-83
2021/12/28 02:34:02;;;;;;;23.67;9.65;;;;;;;-6.07;68.76;100471.47;4958513;28;20058;-83
2021/12/28 02:36:30;;;;;;;25.92;10.80;;;;;;;-5.99;68.37;100475.50;4975104;28;20054;-83
2021/12/28 02:38:57;;;;;;;26.05;10.48;;;;;;;-5.94;68.20;100505.50;4975108;28;20510;-84
2021/12/28 02:41:24;;;;;;;22.83;9.68;;;;;;;-6.02;68.74;100488.00;4974553;28;20063;-82
2021/12/28 02:43:59;;;;;;;25.48;9.90;;;;;;;-6.01;68.80;100489.75;4974186;28;20511;-84
2021/12/28 02:46:27;;;;;;;25.95;11.70;;;;;;;-5.78;68.46;100499.16;4975275;28;20093;-84
2021/12/28 02:48:54;;;;;;;23.92;10.15;;;;;;;-5.90;68.12;100479.50;4975647;28;20145;-85
2021/12/28 02:51:21;;;;;;;27.67;11.40;;;;;;;-5.91;68.58;100490.47;4975801;28;20433;-84
2021/12/28 02:53:48;;;;;;;24.73;11.50;;;;;;;-5.82;68.50;100497.16;4974323;28;20055;-84
2021/12/28 02:56:16;;;;;;;29.20;10.73;;;;;;;-5.88;67.81;100509.38;4974597;28;20059;-83
2021/12/28 02:58:47;;;;;;;27.02;11.32;;;;;;;-5.89;68.42;100494.00;4974152;28;20598;-83
2021/12/28 03:01:21;;;;;;;;;;;;;;;-6.03;68.31;100500.59;4975823;28;20062;-84
2021/12/28 03:03:54;;;;;;;24.33;10.02;;;;;;;-6.08;68.58;100507.84;4955187;28;20020;-84
2021/12/28 03:06:23;;;;;;;27.38;10.68;;;;;;;-6.19;68.48;100488.31;4964492;28;20055;-83
2021/12/28 03:08:54;;;;;;;32.47;11.77;;;;;;;-6.14;68.80;100501.38;4974516;28;20078;-83
2021/12/28 03:11:24;;;;;;;28.13;9.85;;;;;;;-6.22;69.51;100471.13;4954037;29;20561;-83
2021/12/28 03:14:01;;;;;;;27.58;10.90;;;;;;;-6.04;69.35;100499.69;4962726;29;20152;-85
2021/12/28 03:16:29;;;;;;;24.27;9.77;;;;;;;-6.10;68.74;100488.16;4967681;29;20082;-84
2021/12/28 03:18:57;;;;;;;24.23;10.23;;;;;;;-6.01;68.79;100499.94;4951663;29;20083;-84
2021/12/28 03:21:25;;;;;;;23.67;10.43;;;;;;;-6.04;68.92;100494.63;4959656;29;20145;-85
2021/12/28 03:23:54;;;;;;;25.48;10.48;;;;;;;-5.84;68.89;100508.84;4946976;29;20078;-87
2021/12/28 03:26:22;;;;;;;22.85;9.55;;;;;;;-5.74;68.41;100507.03;4940036;29;20541;-86
2021/12/28 03:28:49;;;;;;;20.90;9.43;;;;;;;-5.67;68.40;100516.94;4955972;29;20063;-85
2021/12/28 03:31:18;;;;;;;23.08;9.05;;;;;;;-5.64;68.26;100512.97;4955896;29;20051;-86
2021/12/28 03:33:47;;;;;;;24.08;9.40;;;;;;;-5.63;68.13;100514.75;4956297;29;20154;-87
2021/12/28 03:36:16;;;;;;;21.92;9.18;;;;;;;-5.60;67.71;100514.09;4955474;29;20070;-87
2021/12/28 03:38:45;;;;;;;20.08;9.10;;;;;;;-5.61;67.89;100510.66;4955500;29;20059;-85
2021/12/28 03:41:14;;;;;;;22.58;9.35;;;;;;;-5.69;67.92;100514.25;4938750;29;20055;-84
2021/12/28 03:43:44;;;;;;;21.15;9.07;;;;;;;-5.83;67.93;100491.94;4955819;29;20061;-83
2021/12/28 03:46:12;;;;;;;19.90;8.35;;;;;;;-5.76;68.18;100517.13;4938171;29;20055;-83
2021/12/28 03:48:40;;;;;;;19.15;8.45;;;;;;;-5.76;68.12;100523.09;4954432;29;20476;-83
2021/12/28 03:51:08;;;;;;;22.38;9.88;;;;;;;-5.80;68.25;100512.53;4954513;29;20055;-86
2021/12/28 03:53:36;;;;;;;20.17;8.60;;;;;;;-5.92;68.00;100506.47;4956264;29;20062;-83
2021/12/28 03:56:07;;;;;;;19.52;9.15;;;;;;;-5.98;68.40;100528.19;4955948;29;20059;-84
2021/12/28 03:58:37;;;;;;;18.98;8.15;;;;;;;-6.07;68.76;100496.00;4939541;29;20055;-82
2021/12/28 04:01:07;;;;;;;19.45;8.55;;;;;;;-6.01;68.33;100496.50;4956625;29;20198;-89
2021/12/28 04:03:35;;;;;;;20.70;8.95;;;;;;;-5.94;68.15;100520.78;4940035;29;20070;-84
2021/12/28 04:06:07;;;;;;;18.58;8.25;;;;;;;-6.00;68.20;100519.53;4939681;29;20059;-85
2021/12/28 04:08:37;;;;;;;19.70;7.75;;;;;;;-6.03;68.12;100510.75;4938692;29;20054;-83
2021/12/28 04:13:48;;;;;;;16.65;7.63;;;;;;;-5.97;67.32;100508.69;4957242;29;20079;-85
2021/12/28 04:16:16;;;;;;;15.25;7.18;;;;;;;-5.82;67.31;100526.81;4977105;28;20070;-84
2021/12/28 04:18:44;;;;;;;16.83;7.65;;;;;;;-5.81;67.33;100519.31;4962039;29;20106;-85
2021/12/28 04:21:11;;;;;;;21.92;8.50;;;;;;;-5.80;67.42;100525.28;4932068;29;20048;-87
2021/12/28 04:23:39;;;;;;;20.60;8.48;;;;;;;-5.90;67.30;100500.75;4937106;29;20038;-87
2021/12/28 04:26:06;;;;;;;18.95;7.88;;;;;;;-6.08;67.64;100523.13;4920806;29;20060;-88
2021/12/28 04:28:34;;;;;;;18.98;7.80;;;;;;;-6.16;68.11;100529.25;4920377;29;20055;-85
2021/12/28 04:31:01;;;;;;;19.25;8.23;;;;;;;-6.35;68.40;100515.81;4935167;29;20080;-89
2021/12/28 04:33:29;;;;;;;17.15;7.38;;;;;;;-6.40;68.40;100525.63;4943090;28;20050;-90
2021/12/28 04:35:57;;;;;;;17.13;8.13;;;;;;;-6.55;68.44;100520.16;4925809;29;20078;-90
2021/12/28 04:38:24;;;;;;;16.70;7.55;;;;;;;-6.43;68.72;100527.88;4923803;29;20563;-90
2021/12/28 04:40:51;;;;;;;18.95;7.85;;;;;;;-6.51;68.54;100519.66;4945394;28;20086;-91
2021/12/28 04:43:20;;;;;;;18.88;7.55;;;;;;;-6.45;68.99;100532.88;4972687;28;20419;-86
2021/12/28 04:45:47;;;;;;;17.20;7.75;;;;;;;-6.43;68.83;100535.50;4923261;29;20122;-86
2021/12/28 04:48:15;;;;;;;21.90;9.88;;;;;;;-6.77;68.39;100483.59;4936372;29;20485;-87
2021/12/28 04:50:44;;;;;;;31.13;12.23;;;;;;;-6.70;68.45;100521.47;4954828;29;20058;-86
2021/12/28 04:53:13;;;;;;;53.50;22.50;;;;;;;-6.78;68.60;100536.06;4956701;29;20151;-88
2021/12/28 04:55:46;;;;;;;39.17;15.15;;;;;;;-6.89;69.12;100540.25;4956060;29;20059;-88
2021/12/28 04:58:14;;;;;;;54.72;20.88;;;;;;;-6.88;68.96;100557.28;4941058;29;20058;-87
2021/12/28 05:00:45;;;;;;;84.80;29.00;;;;;;;-7.07;68.74;100531.13;4936000;29;20119;-84
2021/12/28 05:03:13;;;;;;;72.25;25.17;;;;;;;-6.99;69.25;100570.72;4939340;29;20064;-86
2021/12/28 05:05:44;;;;;;;70.05;22.67;;;;;;;-7.02;69.21;100565.41;4921352;29;20504;-86
2021/12/28 05:08:13;;;;;;;62.88;19.83;;;;;;;-7.09;69.34;100568.19;4937122;29;20079;-86
2021/12/28 05:10:41;;;;;;;65.60;18.23;;;;;;;-7.07;68.98;100570.09;4919278;29;20062;-85
2021/12/28 05:13:09;;;;;;;53.10;17.60;;;;;;;-7.17;69.07;100559.03;4948945;29;20051;-87
2021/12/28 05:15:36;;;;;;;45.28;14.68;;;;;;;-7.12;68.88;100579.00;4929941;29;20079;-86
2021/12/28 05:18:04;;;;;;;31.95;11.00;;;;;;;-7.14;69.07;100577.06;4927541;29;20043;-86
2021/12/28 05:20:31;;;;;;;23.05;8.05;;;;;;;-7.26;69.00;100572.72;4945798;29;20052;-85
2021/12/28 05:22:59;;;;;;;14.23;7.00;;;;;;;-7.17;69.02;100589.50;4944071;29;20047;-86
2021/12/28 05:25:25;;;;;;;20.23;7.82;;;;;;;-7.21;69.56;100591.75;4927977;29;20147;-86
2021/12/28 05:27:53;;;;;;;17.15;7.35;;;;;;;-7.15;69.31;100598.16;4945760;29;20062;-87
2021/12/28 05:30:20;;;;;;;15.40;7.20;;;;;;;-7.16;69.04;100606.50;4932657;29;20620;-86
2021/12/28 05:32:48;;;;;;;17.02;7.22;;;;;;;-7.27;69.23;100601.44;4951694;28;20069;-87
2021/12/28 05:35:16;;;;;;;19.33;7.68;;;;;;;-7.18;69.46;100608.94;4934595;29;20051;-84
2021/12/28 05:37:43;;;;;;;18.92;8.38;;;;;;;-7.12;69.81;100624.69;4956915;29;20058;-82
2021/12/28 05:40:13;;;;;;;20.15;8.13;;;;;;;-7.01;69.10;100623.06;4962609;29;20066;-83
2021/12/28 05:42:40;;;;;;;18.58;8.20;;;;;;;-6.90;69.38;100621.44;4966871;29;20115;-81
2021/12/28 05:45:08;;;;;;;17.83;8.82;;;;;;;-6.82;69.47;100626.41;4966053;29;20050;-82
2021/12/28 05:47:35;;;;;;;19.40;8.10;;;;;;;-6.69;68.48;100618.16;4955937;29;20071;-84
2021/12/28 05:50:05;;;;;;;20.30;8.45;;;;;;;-6.54;68.51;100600.72;4954369;29;20126;-83
2021/12/28 05:52:33;;;;;;;19.40;8.98;;;;;;;-6.39;67.76;100599.47;4953489;28;20100;-85
2021/12/28 05:55:00;;;;;;;21.00;8.27;;;;;;;-6.21;67.44;100615.34;4969654;29;20062;-86
2021/12/28 05:57:30;;;;;;;19.67;8.00;;;;;;;-6.12;67.45;100622.84;4943154;29;20051;-87
2021/12/28 05:59:57;;;;;;;17.90;7.75;;;;;;;-6.03;67.37;100636.28;4960396;29;20051;-85
2021/12/28 06:02:24;;;;;;;18.63;7.90;;;;;;;-5.99;67.45;100640.88;4929592;29;20052;-87
2021/12/28 06:04:52;;;;;;;20.15;8.60;;;;;;;-5.88;67.10;100630.66;4941549;29;20158;-86
2021/12/28 06:07:18;;;;;;;16.63;7.63;;;;;;;-5.90;67.26;100612.69;4906886;29;20423;-85
2021/12/28 06:09:45;;;;;;;19.13;7.70;;;;;;;-5.81;67.04;100616.00;4939707;29;20090;-84
2021/12/28 06:12:13;;;;;;;16.60;7.40;;;;;;;-5.61;66.61;100631.97;4906949;29;20067;-85
2021/12/28 06:14:40;;;;;;;16.40;7.85;;;;;;;-5.59;66.69;100620.25;4925841;29;20139;-85
2021/12/28 06:17:06;;;;;;;15.93;7.53;;;;;;;-5.48;66.09;100636.41;4942756;29;20048;-84
2021/12/28 06:19:34;;;;;;;19.55;8.10;;;;;;;-5.47;66.08;100635.59;4948363;29;20059;-85
2021/12/28 06:22:01;;;;;;;15.63;7.38;;;;;;;-5.40;66.58;100648.97;4924838;29;20103;-86
2021/12/28 06:24:28;;;;;;;18.25;7.85;;;;;;;-5.32;66.10;100654.63;4940389;29;20142;-85
2021/12/28 06:26:56;;;;;;;14.55;7.00;;;;;;;-5.35;66.32;100637.47;4939467;29;20059;-86
2021/12/28 06:29:22;;;;;;;19.20;8.88;;;;;;;-5.25;66.21;100656.94;4939848;29;20060;-84
2021/12/28 06:31:49;;;;;;;16.75;7.40;;;;;;;-5.37;66.10;100630.47;4922376;29;20500;-84
2021/12/28 06:34:18;;;;;;;15.75;7.40;;;;;;;-5.17;65.96;100647.31;4921102;29;20059;-83
2021/12/28 06:36:45;;;;;;;18.42;8.75;;;;;;;-5.17;65.47;100642.22;4938345;29;20060;-84
2021/12/28 06:39:12;;;;;;;17.83;8.18;;;;;;;-5.03;65.51;100651.84;4937620;29;20508;-84
2021/12/28 06:41:39;;;;;;;16.42;7.68;;;;;;;-5.19;65.67;100623.38;4937883;29;20059;-85
2021/12/28 06:44:09;;;;;;;18.02;8.45;;;;;;;-5.10;65.55;100633.41;4938324;29;20108;-84
2021/12/28 06:46:39;;;;;;;19.27;8.70;;;;;;;-4.98;66.29;100644.56;4948115;29;20495;-85
2021/12/28 06:49:07;;;;;;;17.73;8.15;;;;;;;-4.81;65.62;100646.75;4956672;28;20055;-84
2021/12/28 06:51:34;;;;;;;27.83;12.95;;;;;;;-4.72;64.79;100643.13;4965848;28;20062;-86
2021/12/28 06:54:00;;;;;;;17.55;8.98;;;;;;;-4.78;65.32;100651.19;4966799;28;20051;-85
2021/12/28 06:56:27;;;;;;;23.17;10.27;;;;;;;-4.79;65.24;100657.06;4939116;29;20427;-84
2021/12/28 06:58:54;;;;;;;23.30;12.07;;;;;;;-4.75;64.99;100652.31;4956588;29;20161;-85
2021/12/28 07:01:23;;;;;;;25.90;12.00;;;;;;;-4.87;65.11;100660.66;4955198;29;20435;-84
2021/12/28 07:03:51;;;;;;;29.50;15.02;;;;;;;-4.95;65.46;100657.50;4956148;29;20061;-81
2021/12/28 07:06:18;;;;;;;28.58;13.90;;;;;;;-4.94;66.01;100644.03;4954262;29;20541;-83
2021/12/28 07:08:49;;;;;;;30.27;13.77;;;;;;;-4.82;66.13;100649.16;4928771;29;20435;-84
2021/12/28 07:11:17;;;;;;;25.45;13.40;;;;;;;-4.72;65.60;100644.00;4948875;29;20750;-83
2021/12/28 07:13:44;;;;;;;27.70;13.18;;;;;;;-4.68;65.27;100655.34;4943519;29;20651;-84
2021/12/28 07:16:11;;;;;;;27.52;13.85;;;;;;;-4.75;65.60;100647.22;4940213;29;20051;-84
2021/12/28 07:18:41;;;;;;;32.67;14.75;;;;;;;-4.81;65.52;100635.66;4938324;29;20059;-83
2021/12/28 07:21:08;;;;;;;38.25;17.50;;;;;;;-4.74;65.47;100653.19;4955648;29;20170;-82
2021/12/28 07:23:35;;;;;;;46.42;19.95;;;;;;;-4.69;65.46;100656.97;4939845;29;20043;-82
2021/12/28 07:26:02;;;;;;;46.00;17.33;;;;;;;-4.67;65.35;100660.53;4958041;29;20114;-83
2021/12/28 07:28:30;;;;;;;35.67;15.55;;;;;;;-4.61;65.56;100660.13;4955933;29;20054;-82
2021/12/28 07:30:57;;;;;;;35.72;15.82;;;;;;;-4.51;65.19;100643.88;4956340;29;20420;-83
2021/12/28 07:33:24;;;;;;;33.90;13.75;;;;;;;-4.37;64.75;100655.97;4932454;29;20050;-82
2021/12/28 07:35:51;;;;;;;24.50;12.18;;;;;;;-4.46;65.40;100658.72;4953711;29;20145;-84
2021/12/28 07:38:17;;;;;;;28.52;12.35;;;;;;;-4.46;64.74;100653.63;4937327;29;20057;-83
2021/12/28 07:40:45;;;;;;;26.15;11.93;;;;;;;-4.41;65.38;100667.63;4937273;29;20058;-83
2021/12/28 07:43:13;;;;;;;28.00;11.00;;;;;;;-4.34;65.57;100664.75;4955383;29;20130;-82
2021/12/28 07:45:40;;;;;;;26.70;11.77;;;;;;;-4.39;65.01;100661.00;4937253;29;20058;-83
2021/12/28 07:48:09;;;;;;;25.48;10.65;;;;;;;-4.35;65.47;100672.28;4953742;29;20468;-84
2021/12/28 07:50:36;;;;;;;22.83;10.55;;;;;;;-4.42;65.03;100639.44;4953475;29;20055;-83
2021/12/28 07:53:03;;;;;;;23.75;10.02;;;;;;;-4.44;65.14;100663.97;4953845;28;20055;-82
2021/12/28 07:55:30;;;;;;;24.70;9.73;;;;;;;-4.56;64.83;100669.91;4922599;29;20196;-82
2021/12/28 07:57:57;;;;;;;21.70;9.00;;;;;;;-4.57;65.25;100675.75;4953793;29;20315;-83
2021/12/28 08:00:25;;;;;;;20.52;9.70;;;;;;;-4.53;65.55;100676.91;4936268;29;20519;-83
2021/12/28 08:02:53;;;;;;;20.05;9.90;;;;;;;-4.68;65.26;100675.72;4937648;29;20153;-84
2021/12/28 08:05:20;;;;;;;24.38;10.00;;;;;;;-4.84;65.35;100655.78;4954759;29;20575;-82
2021/12/28 08:07:48;;;;;;;23.65;11.52;;;;;;;-4.92;65.84;100682.38;4956076;29;20051;-83
2021/12/28 08:10:16;;;;;;;21.95;10.52;;;;;;;-5.13;66.30;100658.66;4958822;28;20058;-82
2021/12/28 08:12:44;;;;;;;24.73;10.98;;;;;;;-4.99;66.78;100676.78;4958960;28;20055;-88
2021/12/28 08:15:12;;;;;;;23.52;10.95;;;;;;;-5.00;66.62;100679.22;4947068;28;20051;-82
2021/12/28 08:17:39;;;;;;;22.67;11.07;;;;;;;-4.87;66.47;100687.03;4986706;28;20054;-86
2021/12/28 08:20:09;;;;;;;24.15;10.80;;;;;;;-4.90;66.03;100665.50;4971560;28;20046;-85
2021/12/28 08:22:37;;;;;;;24.43;10.43;;;;;;;-4.87;66.30;100696.34;4974134;28;20081;-83
2021/12/28 08:25:07;;;;;;;27.38;11.27;;;;;;;-5.00;66.78;100664.81;4954227;28;20306;-80
2021/12/28 08:27:37;;;;;;;;;;;;;;;-5.08;66.73;100695.56;4972875;28;20062;-86
2021/12/28 08:30:06;;;;;;;24.33;10.95;;;;;;;-5.24;66.52;100656.13;4942599;28;19977;-84
2021/12/28 08:32:33;;;;;;;27.30;12.38;;;;;;;-5.12;66.72;100701.19;4968458;28;20051;-85
2021/12/28 08:35:00;;;;;;;29.17;13.13;;;;;;;-5.22;66.79;100679.19;4966503;28;20057;-84
2021/12/28 08:37:28;;;;;;;23.17;11.77;;;;;;;-5.17;67.05;100695.72;4954017;28;20137;-84
2021/12/28 08:39:55;;;;;;;28.25;13.43;;;;;;;-5.06;67.42;100688.94;4973332;28;20051;-84
2021/12/28 08:42:23;;;;;;;27.80;12.60;;;;;;;-4.96;66.79;100696.53;4972449;28;20102;-84
2021/12/28 08:44:51;;;;;;;28.75;13.23;;;;;;;-4.88;66.55;100694.56;4972373;28;20142;-84
2021/12/28 08:47:19;;;;;;;30.00;13.43;;;;;;;-5.09;66.73;100684.47;4955794;28;20467;-85
2021/12/28 08:49:46;;;;;;;30.45;14.07;;;;;;;-5.10;66.80;100692.00;4973611;28;20058;-83
2021/12/28 08:52:13;;;;;;;28.75;12.75;;;;;;;-5.19;67.48;100675.22;4972823;28;20590;-85
2021/12/28 08:54:40;;;;;;;31.92;13.70;;;;;;;-5.13;67.07;100681.56;4973030;28;20141;-84
2021/12/28 08:57:07;;;;;;;28.60;14.27;;;;;;;-5.20;67.29;100688.72;4957398;28;20169;-85
2021/12/28 08:59:34;;;;;;;31.90;13.85;;;;;;;-5.24;67.09;100678.19;4972702;28;20082;-85
2021/12/28 09:02:02;;;;;;;30.45;15.95;;;;;;;-5.21;67.22;100684.38;4974932;28;20511;-84
2021/12/28 09:04:29;;;;;;;31.17;16.15;;;;;;;-5.23;67.32;100670.63;4956540;28;20400;-85
2021/12/28 09:06:57;;;;;;;36.05;16.45;;;;;;;-5.06;67.00;100684.72;4971403;28;20047;-86
2021/12/28 09:09:33;;;;;;;36.00;17.23;;;;;;;-5.19;66.93;100679.44;4963944;28;20101;-86
2021/12/28 09:12:00;;;;;;;39.30;19.83;;;;;;;-5.27;67.30;100677.94;4943300;29;20066;-86
2021/12/28 09:14:27;;;;;;;32.78;16.73;;;;;;;-5.34;66.97;100646.00;4974733;28;20055;-86
2021/12/28 09:16:56;;;;;;;34.40;16.40;;;;;;;-5.05;67.37;100677.97;4943601;28;20797;-85
2021/12/28 09:19:24;;;;;;;36.03;16.38;;;;;;;-4.98;67.05;100693.84;4950186;28;20048;-86
2021/12/28 09:21:51;;;;;;;31.65;16.17;;;;;;;-5.22;67.11;100639.31;4947551;29;20154;-87
2021/12/28 09:24:23;;;;;;;34.72;16.13;;;;;;;-4.87;66.50;100691.25;4936496;29;20096;-87
2021/12/28 09:27:11;;;;;;;32.13;16.00;;;;;;;-4.83;66.71;100688.19;4949226;29;20055;-89
2021/12/28 09:29:51;;;;;;;34.10;14.88;;;;;;;-5.02;65.90;100639.97;4947795;29;20075;-87
2021/12/28 09:32:43;;;;;;;30.63;14.45;;;;;;;-4.89;66.49;100672.41;4926321;29;20058;-85
2021/12/28 09:35:12;;;;;;;31.10;14.88;;;;;;;-4.78;66.43;100697.94;4939342;29;20130;-88
2021/12/28 09:37:40;;;;;;;32.03;14.95;;;;;;;-4.72;66.37;100702.63;4957402;29;20452;-87
2021/12/28 09:40:09;;;;;;;30.77;14.25;;;;;;;-4.67;66.43;100698.78;4943919;29;20593;-85
2021/12/28 09:42:38;;;;;;;32.75;14.45;;;;;;;-4.57;66.03;100693.63;4961608;29;20062;-86
2021/12/28 09:45:07;;;;;;;28.98;13.15;;;;;;;-4.66;65.99;100675.06;4961781;29;20145;-84
2021/12/28 09:47:34;;;;;;;31.40;14.63;;;;;;;-4.46;65.76;100707.19;4961326;29;20059;-83
2021/12/28 09:50:04;;;;;;;26.95;13.00;;;;;;;-4.40;65.59;100705.13;4953875;29;20050;-85
2021/12/28 09:52:32;;;;;;;29.85;12.73;;;;;;;-4.43;65.96;100710.00;4948624;29;20054;-85
2021/12/28 09:54:59;;;;;;;30.35;13.75;;;;;;;-4.54;65.71;100700.59;4950807;28;20141;-83
2021/12/28 09:57:28;;;;;;;36.28;17.50;;;;;;;-4.55;65.87;100688.66;4949270;29;20050;-84
2021/12/28 09:59:55;;;;;;;34.13;16.08;;;;;;;-4.37;65.78;100705.31;4920675;29;20405;-85
2021/12/28 10:02:25;;;;;;;30.55;14.70;;;;;;;-4.41;65.27;100703.34;4942903;29;20107;-86
2021/12/28 10:04:58;;;;;;;29.25;13.70;;;;;;;-4.39;65.78;100708.53;4930049;29;20464;-86
2021/12/28 10:07:31;;;;;;;28.00;12.82;;;;;;;-4.43;65.47;100712.53;4937745;29;20052;-85
2021/12/28 10:09:59;;;;;;;27.98;12.52;;;;;;;-4.50;65.75;100701.75;4946457;29;20074;-84
2021/12/28 10:12:30;;;;;;;26.35;12.40;;;;;;;-4.36;65.53;100724.09;4942991;29;20146;-85
2021/12/28 10:15:06;;;;;;;28.02;11.60;;;;;;;-4.42;65.81;100706.66;4944262;28;20051;-84
2021/12/28 10:17:34;;;;;;;28.25;12.25;;;;;;;-4.32;65.46;100714.25;4937012;29;20055;-86
2021/12/28 10:20:08;;;;;;;27.40;11.65;;;;;;;-4.34;65.38;100702.16;4958230;29;20099;-86
2021/12/28 10:22:39;;;;;;;24.17;11.68;;;;;;;-4.37;65.48;100699.34;4955257;29;20059;-85
2021/12/28 10:25:40;;;;;;;25.00;11.35;;;;;;;-4.28;65.31;100724.66;4940098;29;20483;-84
2021/12/28 10:28:11;;;;;;;22.17;11.65;;;;;;;-4.27;65.15;100731.56;4943792;29;20066;-85
2021/12/28 10:30:43;;;;;;;23.08;11.00;;;;;;;-4.29;65.44;100723.78;4955946;29;20055;-84
2021/12/28 10:33:15;;;;;;;24.50;11.68;;;;;;;-4.22;65.17;100728.56;4955490;29;20100;-85
2021/12/28 10:35:54;;;;;;;23.27;10.77;;;;;;;-4.29;65.17;100739.09;4959986;29;20051;-86
2021/12/28 10:38:37;;;;;;;23.33;10.68;;;;;;;-4.34;65.39;100740.41;4939720;29;20455;-84
2021/12/28 10:41:11;;;;;;;24.10;10.57;;;;;;;-4.39;65.29;100734.06;4937565;29;20483;-83
2021/12/28 10:43:43;;;;;;;22.38;11.23;;;;;;;-4.48;65.73;100725.69;4939871;29;20047;-84
2021/12/28 10:46:22;;;;;;;27.00;12.40;;;;;;;-4.46;65.77;100736.91;4935237;29;20075;-87
2021/12/28 10:48:58;;;;;;;29.90;13.77;;;;;;;-4.51;65.35;100721.25;4950422;29;20051;-84
2021/12/28 10:51:34;;;;;;;27.20;12.00;;;;;;;-4.45;65.65;100729.38;4944045;29;20465;-85
2021/12/28 10:56:39;;;;;;;31.58;12.93;;;;;;;-4.27;65.26;100729.91;4955420;29;20055;-85
2021/12/28 10:59:10;;;;;;;26.52;11.50;;;;;;;-4.24;65.47;100734.34;4957816;29;20047;-85
2021/12/28 11:01:39;;;;;;;25.38;11.23;;;;;;;-4.35;65.28;100724.19;4958111;29;20051;-83
2021/12/28 11:04:10;;;;;;;24.00;11.48;;;;;;;-4.28;65.27;100739.97;4950265;29;20426;-84
2021/12/28 11:06:44;;;;;;;24.90;11.05;;;;;;;-4.35;65.23;100725.88;4974443;29;20047;-84
2021/12/28 11:09:19;;;;;;;21.52;10.73;;;;;;;-4.63;65.22;100688.03;4921013;29;20471;-85
2021/12/28 11:11:50;;;;;;;22.60;10.77;;;;;;;-4.31;65.02;100732.97;4931102;29;20159;-86
2021/12/28 11:14:28;;;;;;;24.55;11.30;;;;;;;-4.33;65.06;100747.28;4945874;29;20054;-83
2021/12/28 11:17:04;;;;;;;21.38;10.65;;;;;;;-4.41;65.25;100738.16;4942487;29;20043;-84
2021/12/28 11:19:35;;;;;;;20.95;10.57;;;;;;;-4.41;65.20;100738.16;4947753;29;20595;-84
2021/12/28 11:22:11;;;;;;;26.13;10.52;;;;;;;-4.49;65.66;100737.56;4955983;29;20471;-86
2021/12/28 11:24:45;;;;;;;28.02;11.18;;;;;;;-4.41;65.33;100744.16;4924385;29;20388;-84
2021/12/28 11:27:27;;;;;;;22.52;11.35;;;;;;;-4.43;65.42;100747.34;4924201;29;20114;-86